Latest Weather Observations for Perisher Valley

IDN60801

Issued at 10:32 pm EDT Sunday 11 December 2016 (issued every 30 minutes, with the page automatically refreshed every 10 minutes)

About weather observations | Map of weather stations | Latest weather observations for NSW | Other Formats
Station Details ID: 071075 Name: PERISHER VALLEY AWS Lat: -36.41 Lon: 148.41 Height: 1738.0 m
Data from the previous 72 hours. | See also: Recent months at Perisher Valley
Date/Time
EDT
Temp
°C
App
Temp
°C
Dew
Point
°C
Rel
Hum
%
Delta-T
°C
Wind Press
QNH
hPa
Press
MSL
hPa
Rain since
9am
mm
Dir  Spd
km/h
Gust
km/h
Spd
kts
Gust
kts
11/10:30pm 7.6 6.7 6.2 91 0.7 CALM 0 0 0 0 - - 0.0
11/10:00pm 7.7 6.8 6.0 89 0.9 CALM 0 0 0 0 - - 0.0
11/09:30pm 9.2 8.4 8.0 92 0.6 NNE 2 4 1 2 - - 0.0
11/09:00pm 9.9 9.3 8.8 93 0.6 NE 2 4 1 2 - - 0.0
11/08:30pm 9.7 8.1 8.0 89 0.9 ENE 6 9 3 5 - - 0.0
11/08:00pm 10.8 9.8 8.9 88 1.0 ENE 4 7 2 4 - - 0.0
11/07:30pm 10.9 9.4 9.0 88 1.0 E 7 13 4 7 - - 0.0
11/07:00pm 11.8 10.3 9.2 84 1.4 ESE 7 15 4 8 - - 0.0
11/06:30pm 12.8 10.1 9.1 78 2.0 ESE 13 22 7 12 - - 0.0
11/06:00pm 15.3 12.7 7.8 61 4.1 E 11 20 6 11 - - 0.0
11/05:30pm 17.8 14.5 -0.9 28 8.8 SW 6 15 3 8 - - 0.0
11/05:00pm 17.6 12.6 -1.1 28 8.7 W 15 24 8 13 - - 0.0
11/04:30pm 18.1 14.7 -0.7 28 8.9 WSW 7 20 4 11 - - 0.0
11/04:00pm 19.1 15.9 -0.3 27 9.3 ENE 6 20 3 11 - - 0.0
11/03:30pm 18.7 16.1 5.9 43 6.9 E 9 17 5 9 - - 0.0
11/03:00pm 16.4 14.2 5.1 47 5.9 SE 6 15 3 8 - - 0.0
11/02:30pm 18.8 16.2 7.9 49 6.1 ESE 11 22 6 12 - - 0.0
11/02:00pm 17.3 13.5 -0.4 30 8.4 WNW 9 20 5 11 - - 0.0
11/01:30pm 16.8 12.7 0.0 32 8.0 W 11 22 6 12 - - 0.0
11/01:00pm 16.9 13.2 0.1 32 8.0 WSW 9 17 5 9 - - 0.0
11/12:30pm 15.5 11.4 0.1 35 7.2 W 11 26 6 14 - - 0.0
11/12:00pm 15.7 12.1 0.7 36 7.2 NNW 9 20 5 11 - - 0.0
11/11:30am 15.0 11.2 1.5 40 6.5 W 11 22 6 12 - - 0.0
11/11:00am 13.2 8.3 -0.8 38 6.3 W 15 24 8 13 - - 0.0
11/10:30am 13.1 8.5 -1.2 37 6.4 WNW 13 24 7 13 - - 0.0
11/10:00am 12.5 7.3 0.0 42 5.7 WNW 17 26 9 14 - - 0.0
11/09:30am 12.4 7.7 0.8 45 5.4 WNW 15 24 8 13 - - 0.0
11/09:00am 11.6 7.7 1.3 49 4.8 WNW 11 28 6 15 - - 0.0
11/08:30am 11.0 7.8 1.0 50 4.6 W 7 19 4 10 - - 0.0
11/08:00am 10.3 4.9 1.2 53 4.2 W 19 32 10 17 - - 0.0
11/07:30am 9.9 6.4 1.5 56 3.9 W 9 26 5 14 - - 0.0
11/07:00am 8.1 5.8 2.8 69 2.5 WSW 4 13 2 7 - - 0.0
11/06:30am 5.4 3.3 1.5 76 1.7 NE 2 11 1 6 - - 0.0
11/06:00am 3.5 1.1 -0.1 77 1.5 NNE 2 7 1 4 - - 0.0
11/05:30am 6.5 2.9 0.8 67 2.5 W 9 20 5 11 - - 0.0
11/05:00am 6.9 3.5 1.8 70 2.3 WSW 9 20 5 11 - - 0.0
11/04:30am 6.3 3.0 2.2 75 1.9 W 9 17 5 9 - - 0.0
11/04:00am 5.8 3.1 2.6 80 1.5 W 6 15 3 8 - - 0.0
11/03:30am 4.7 2.1 1.2 78 1.5 WNW 4 13 2 7 - - 0.0
11/03:00am 5.1 2.4 2.6 84 1.1 WNW 6 9 3 5 - - 0.0
11/02:30am 1.6 -1.1 0.6 93 0.4 WNW 4 6 2 3 - - 0.0
11/02:00am 1.8 -0.1 0.6 92 0.5 CALM 0 0 0 0 - - 0.0
11/01:30am 2.6 0.8 1.4 92 0.5 CALM 0 2 0 1 - - 0.0
11/01:00am 3.7 1.8 2.7 93 0.5 WSW 2 4 1 2 - - 0.0
11/12:30am 5.2 3.9 4.0 92 0.6 CALM 0 2 0 1 - - 0.0
11/12:00am 5.9 4.4 5.2 95 0.3 ENE 2 4 1 2 - - 0.0
 
Date/Time
EDT
Temp
°C
App
Temp
°C
Dew
Point
°C
Rel
Hum
%
Delta-T
°C
Wind Press
QNH
hPa
Press
MSL
hPa
Rain since
9am
mm
Dir  Spd
km/h
Gust
km/h
Spd
kts
Gust
kts
10/11:30pm 5.9 4.8 5.2 95 0.3 CALM 0 2 0 1 - - 0.0
10/11:00pm 5.0 3.3 4.1 94 0.4 SW 2 4 1 2 - - 0.0
10/10:30pm 5.0 3.7 4.0 93 0.5 CALM 0 2 0 1 - - 0.0
10/10:00pm 4.9 2.8 3.9 93 0.5 SW 4 6 2 3 - - 0.0
10/09:30pm 4.7 2.8 2.7 87 0.9 SW 2 7 1 4 - - 0.0
10/09:00pm 6.2 4.2 2.3 76 1.8 WSW 2 4 1 2 - - 0.0
10/08:30pm 8.0 5.9 2.0 66 2.8 NE 2 6 1 3 - - 0.0
10/08:00pm 9.9 6.9 1.0 54 4.1 W 6 17 3 9 - - 0.0
10/07:30pm 11.4 5.7 -0.4 44 5.3 W 19 28 10 15 - - 0.0
10/07:00pm 12.6 7.9 0.7 44 5.5 W 15 26 8 14 - - 0.0
10/06:30pm 13.1 8.5 -0.9 38 6.3 W 13 22 7 12 - - 0.0
10/06:00pm 13.6 8.5 -2.3 33 7.0 W 15 22 8 12 - - 0.0
10/05:30pm 14.3 9.5 -2.6 31 7.4 W 13 24 7 13 - - 0.0
10/05:00pm 13.7 7.4 -5.4 26 7.9 W 19 28 10 15 - - 0.0
10/04:30pm 13.9 8.6 -3.8 29 7.6 W 15 28 8 15 - - 0.0
10/04:00pm 13.9 7.9 -2.9 31 7.3 W 19 32 10 17 - - 0.0
10/03:30pm 14.7 10.1 -1.4 33 7.3 W 13 32 7 17 - - 0.0
10/03:00pm 14.0 8.6 -1.6 34 7.0 W 17 30 9 16 - - 0.0
10/02:30pm 13.9 9.3 -1.3 35 6.9 W 13 30 7 16 - - 0.0
10/02:00pm 14.6 9.7 -0.7 35 7.0 W 15 28 8 15 - - 0.0
10/01:30pm 14.4 10.7 -0.1 37 6.7 W 9 24 5 13 - - 0.0
10/01:00pm 14.3 10.5 -0.5 36 6.8 WNW 9 19 5 10 - - 0.0
10/12:30pm 14.1 9.7 0.4 39 6.4 NNW 13 20 7 11 - - 0.0
10/12:00pm 14.2 9.8 0.5 39 6.4 NW 13 22 7 12 - - 0.0
10/11:30am 13.0 8.2 -2.5 34 6.8 W 13 24 7 13 - - 0.0
10/11:00am 12.3 7.5 -2.7 35 6.5 W 13 24 7 13 - - 0.0
10/10:30am 12.5 7.8 -2.1 36 6.4 WNW 13 24 7 13 - - 0.0
10/10:00am 11.3 5.8 -2.1 39 5.8 W 17 28 9 15 - - 0.0
10/09:30am 10.8 5.5 -3.3 37 5.9 W 15 24 8 13 - - 0.0
10/09:00am 10.7 6.1 -3.7 36 6.0 W 11 20 6 11 - - 0.0
10/08:30am 9.1 3.2 -5.2 36 5.6 W 17 28 9 15 - - 0.0
10/08:00am 8.3 2.7 -5.9 36 5.5 W 15 26 8 14 - - 0.0
10/07:30am 6.9 3.3 -3.6 47 4.2 NNW 6 15 3 8 - - 0.0
10/07:00am 3.4 0.1 -1.2 72 1.9 WSW 6 9 3 5 - - 0.0
10/06:30am 0.5 -1.7 -1.3 88 0.7 CALM 0 4 0 2 - - 0.0
10/06:00am -1.4 -4.2 -3.7 84 0.8 W 2 4 1 2 - - 0.0
10/05:30am -1.5 -4.0 -3.7 85 0.7 CALM 0 7 0 4 - - 0.0
10/05:00am -2.8 -5.8 -4.7 87 0.5 WSW 2 6 1 3 - - 0.0
10/04:30am -2.1 -4.5 -3.5 90 0.4 CALM 0 4 0 2 - - 0.0
10/04:00am -1.8 -4.6 -2.9 92 0.3 SSW 2 2 1 1 - - 0.0
10/03:30am -2.2 -4.6 -3.5 91 0.4 CALM 0 2 0 1 - - 0.0
10/03:00am -1.6 -3.9 -2.7 92 0.3 CALM 0 2 0 1 - - 0.0
10/02:30am -1.1 -3.3 -1.9 94 0.3 CALM 0 2 0 1 - - 0.0
10/02:00am -1.3 -4.0 -2.4 92 0.4 ENE 2 4 1 2 - - 0.0
10/01:30am -0.8 -3.0 -1.9 92 0.4 CALM 0 2 0 1 - - 0.0
10/01:00am -0.7 -4.0 -1.5 94 0.3 WSW 6 7 3 4 - - 0.0
10/12:30am -0.7 -2.9 -1.8 92 0.4 CALM 0 2 0 1 - - 0.0
10/12:00am -0.1 -2.2 -1.1 93 0.4 CALM 0 4 0 2 - - 0.0
 
Date/Time
EDT
Temp
°C
App
Temp
°C
Dew
Point
°C
Rel
Hum
%
Delta-T
°C
Wind Press
QNH
hPa
Press
MSL
hPa
Rain since
9am
mm
Dir  Spd
km/h
Gust
km/h
Spd
kts
Gust
kts
09/11:30pm 0.1 -2.8 -1.2 91 0.5 SW 4 6 2 3 - - 0.0
09/11:00pm 0.9 -1.9 -0.7 89 0.6 SW 4 11 2 6 - - 0.0
09/10:30pm 0.9 -1.3 -1.2 86 0.8 CALM 0 0 0 0 - - 0.0
09/10:00pm 2.7 -0.1 -0.2 81 1.2 WSW 4 13 2 7 - - 0.0
09/09:30pm 3.9 0.8 1.4 84 1.1 WSW 7 15 4 8 - - 0.0
09/09:00pm 2.9 0.2 0.1 82 1.2 WSW 4 13 2 7 - - 0.0
09/08:30pm 4.8 1.3 1.3 78 1.5 WSW 9 17 5 9 - - 0.0
09/08:00pm 5.3 2.1 0.9 73 1.9 W 7 13 4 7 - - 0.0
09/07:30pm 7.5 4.2 0.0 59 3.3 WSW 7 17 4 9 - - 0.0
09/07:00pm 7.8 4.1 -0.2 57 3.5 SW 9 24 5 13 - - 0.0
09/06:30pm 7.9 4.2 -0.1 57 3.5 SW 9 22 5 12 - - 0.0
09/06:00pm 8.8 4.9 1.2 59 3.5 WSW 11 32 6 17 - - 0.0
09/05:30pm 8.9 4.5 0.1 54 3.9 SW 13 30 7 16 - - 0.0
09/05:00pm 8.9 4.7 1.6 60 3.4 WSW 13 32 7 17 - - 0.0
09/04:30pm 8.4 4.1 1.3 61 3.2 WSW 13 28 7 15 - - 0.0
09/04:00pm 8.5 4.0 2.3 65 2.9 W 15 28 8 15 - - 0.0
09/03:30pm 9.1 3.8 2.0 61 3.3 W 19 35 10 19 - - 0.0
09/03:00pm 7.5 1.2 1.6 66 2.7 W 24 43 13 23 - - 0.0
09/02:30pm 7.9 2.5 1.5 64 2.9 W 19 35 10 19 - - 0.0
09/02:00pm 7.9 3.3 1.7 65 2.8 WSW 15 35 8 19 - - 0.0
09/01:30pm 7.5 3.2 1.1 64 2.9 WSW 13 37 7 20 - - 0.0
09/01:00pm 7.5 3.3 1.8 67 2.6 WSW 13 41 7 22 - - 0.0
09/12:30pm 7.3 2.2 0.7 63 2.9 WSW 17 32 9 17 - - 0.0
09/12:00pm 7.4 2.9 -0.1 59 3.3 SW 13 28 7 15 - - 0.0
09/11:30am 6.4 1.7 -1.5 57 3.3 SW 13 33 7 18 - - 0.0
09/11:00am 6.3 1.8 -0.2 63 2.8 SW 13 32 7 17 - - 0.0
09/10:30am 5.2 0.3 -0.2 68 2.3 SW 15 37 8 20 - - 0.0
09/10:00am 4.9 -0.3 -0.1 70 2.1 SW 17 41 9 22 - - 0.0
09/09:30am 4.1 -0.3 0.1 75 1.7 SW 13 30 7 16 - - 0.0
09/09:00am 3.1 -1.0 -0.4 78 1.5 SW 11 28 6 15 - - 34.6
09/08:30am 3.3 -0.9 1.7 89 0.7 SW 13 26 7 14 - - 34.6
09/08:00am 1.6 -2.0 0.4 92 0.5 WSW 9 19 5 10 - - 34.6
09/07:30am 1.1 -2.0 -0.1 92 0.5 WSW 6 13 3 7 - - 33.6
09/07:00am 1.8 -3.5 -0.8 83 1.1 WSW 17 32 9 17 - - 33.4
09/06:30am 1.9 -2.2 0.1 88 0.7 WSW 11 26 6 14 - - 33.4
09/06:00am 1.7 -2.7 0.4 91 0.5 WSW 13 33 7 18 - - 33.4
09/05:30am 2.0 -2.3 1.1 94 0.4 WSW 13 26 7 14 - - 33.4
09/05:00am 2.2 -1.7 1.0 92 0.5 WSW 11 28 6 15 - - 32.4
09/04:30am 2.4 -1.5 1.2 92 0.5 W 11 24 6 13 - - 30.8
09/04:00am 2.8 -0.4 1.0 88 0.8 WSW 7 30 4 16 - - 29.8
09/03:30am 3.0 -2.0 1.4 89 0.7 WSW 17 37 9 20 - - 29.8
09/03:00am 3.0 -1.9 1.7 91 0.6 W 17 37 9 20 - - 29.6
09/02:30am 2.6 -1.3 1.4 92 0.5 WSW 11 26 6 14 - - 29.0
09/02:00am 3.1 -0.6 2.2 94 0.4 W 11 28 6 15 - - 26.4
09/01:30am 3.3 -0.9 1.8 90 0.7 WSW 13 28 7 15 - - 26.2
09/01:00am 3.5 -0.6 2.3 92 0.5 W 13 33 7 18 - - 26.2
09/12:30am 3.4 -4.9 2.1 91 0.6 WNW 35 61 19 33 - - 26.2
09/12:00am 4.3 -4.2 3.0 91 0.6 WNW 37 63 20 34 - - 25.4
 
Date/Time
EDT
Temp
°C
App
Temp
°C
Dew
Point
°C
Rel
Hum
%
Delta-T
°C
Wind Press
QNH
hPa
Press
MSL
hPa
Rain since
9am
mm
Dir  Spd
km/h
Gust
km/h
Spd
kts
Gust
kts
08/11:30pm 4.5 -2.5 2.2 85 1.0 W 28 56 15 30 - - 25.4
08/11:00pm 4.4 -2.6 1.9 84 1.1 W 28 48 15 26 - - 25.4

Other Formats:

Comma delimited format used in spreadsheet applications
http://www.bom.gov.au/fwo/IDN60801/IDN60801.94915.axf

JavaScript Object Notation format (JSON) in row-major order
http://www.bom.gov.au/fwo/IDN60801/IDN60801.94915.json